sensor_id;sensor_type;location;lat;lon;timestamp;pressure;altitude;pressure_sealevel;temperature;humidity
73516;BME280;61763;51.416;5.442;2023-06-26T00:00:22;101132.16;;;19.65;100.00
73516;BME280;61763;51.416;5.442;2023-06-26T00:02:47;101131.66;;;19.71;100.00
73516;BME280;61763;51.416;5.442;2023-06-26T00:05:12;101127.09;;;19.93;100.00
73516;BME280;61763;51.416;5.442;2023-06-26T00:07:38;101129.41;;;20.09;100.00
73516;BME280;61763;51.416;5.442;2023-06-26T00:10:05;101134.81;;;20.20;100.00
73516;BME280;61763;51.416;5.442;2023-06-26T00:12:31;101118.56;;;20.28;100.00
73516;BME280;61763;51.416;5.442;2023-06-26T00:14:56;101125.13;;;20.37;100.00
73516;BME280;61763;51.416;5.442;2023-06-26T00:17:22;101122.91;;;20.73;100.00
73516;BME280;61763;51.416;5.442;2023-06-26T00:19:48;101118.38;;;20.93;100.00
73516;BME280;61763;51.416;5.442;2023-06-26T00:22:14;101120.97;;;20.95;100.00
73516;BME280;61763;51.416;5.442;2023-06-26T00:24:39;101117.47;;;20.83;100.00
73516;BME280;61763;51.416;5.442;2023-06-26T00:27:04;101110.41;;;20.80;100.00
73516;BME280;61763;51.416;5.442;2023-06-26T00:29:30;101111.06;;;20.73;100.00
73516;BME280;61763;51.416;5.442;2023-06-26T00:31:55;101116.75;;;20.81;100.00
73516;BME280;61763;51.416;5.442;2023-06-26T00:34:21;101112.81;;;20.74;100.00
73516;BME280;61763;51.416;5.442;2023-06-26T00:36:46;101115.97;;;20.69;100.00
73516;BME280;61763;51.416;5.442;2023-06-26T00:39:11;101113.75;;;20.63;100.00
73516;BME280;61763;51.416;5.442;2023-06-26T00:41:37;101117.44;;;20.73;100.00
73516;BME280;61763;51.416;5.442;2023-06-26T00:44:05;101113.16;;;20.80;100.00
73516;BME280;61763;51.416;5.442;2023-06-26T00:46:31;101112.88;;;20.83;100.00
73516;BME280;61763;51.416;5.442;2023-06-26T00:48:59;101113.84;;;20.82;100.00
73516;BME280;61763;51.416;5.442;2023-06-26T00:51:30;101118.91;;;20.77;100.00
73516;BME280;61763;51.416;5.442;2023-06-26T00:53:56;101118.50;;;20.82;100.00
73516;BME280;61763;51.416;5.442;2023-06-26T00:56:22;101124.13;;;20.90;100.00
73516;BME280;61763;51.416;5.442;2023-06-26T00:58:48;101115.91;;;20.90;100.00
73516;BME280;61763;51.416;5.442;2023-06-26T01:01:14;101124.13;;;20.90;100.00
73516;BME280;61763;51.416;5.442;2023-06-26T01:03:46;101135.56;;;20.95;100.00
73516;BME280;61763;51.416;5.442;2023-06-26T01:06:17;101124.41;;;20.87;100.00
73516;BME280;61763;51.416;5.442;2023-06-26T01:08:44;101124.97;;;20.81;100.00
73516;BME280;61763;51.416;5.442;2023-06-26T01:11:10;101127.84;;;20.79;100.00
73516;BME280;61763;51.416;5.442;2023-06-26T01:13:35;101130.25;;;20.73;100.00
73516;BME280;61763;51.416;5.442;2023-06-26T01:16:01;101136.00;;;20.70;100.00
73516;BME280;61763;51.416;5.442;2023-06-26T01:18:28;101133.88;;;20.73;100.00
73516;BME280;61763;51.416;5.442;2023-06-26T01:20:54;101133.00;;;20.73;100.00
73516;BME280;61763;51.416;5.442;2023-06-26T01:26:22;101147.97;;;20.47;100.00
73516;BME280;61763;51.416;5.442;2023-06-26T01:28:50;101138.28;;;20.43;100.00
73516;BME280;61763;51.416;5.442;2023-06-26T01:31:16;101134.13;;;20.49;100.00
73516;BME280;61763;51.416;5.442;2023-06-26T01:33:43;101134.81;;;20.41;100.00
73516;BME280;61763;51.416;5.442;2023-06-26T01:36:08;101139.84;;;20.36;100.00
73516;BME280;61763;51.416;5.442;2023-06-26T01:38:34;101141.25;;;20.30;100.00
73516;BME280;61763;51.416;5.442;2023-06-26T01:41:00;101140.97;;;20.34;100.00
73516;BME280;61763;51.416;5.442;2023-06-26T01:46:01;101152.41;;;20.39;100.00
73516;BME280;61763;51.416;5.442;2023-06-26T01:48:32;101155.94;;;20.29;100.00
73516;BME280;61763;51.416;5.442;2023-06-26T01:50:59;101155.69;;;20.33;100.00
73516;BME280;61763;51.416;5.442;2023-06-26T01:53:32;101164.88;;;20.31;100.00
73516;BME280;61763;51.416;5.442;2023-06-26T01:56:13;101171.00;;;20.35;100.00
73516;BME280;61763;51.416;5.442;2023-06-26T01:58:41;101171.97;;;20.34;100.00
73516;BME280;61763;51.416;5.442;2023-06-26T02:01:08;101177.16;;;20.27;100.00
73516;BME280;61763;51.416;5.442;2023-06-26T02:03:33;101175.66;;;20.23;100.00
73516;BME280;61763;51.416;5.442;2023-06-26T02:05:59;101186.34;;;20.26;100.00
73516;BME280;61763;51.416;5.442;2023-06-26T02:08:24;101185.13;;;20.19;100.00
73516;BME280;61763;51.416;5.442;2023-06-26T02:10:50;101187.41;;;20.14;100.00
73516;BME280;61763;51.416;5.442;2023-06-26T02:13:15;101179.69;;;20.08;100.00
73516;BME280;61763;51.416;5.442;2023-06-26T02:15:40;101179.91;;;19.95;100.00
73516;BME280;61763;51.416;5.442;2023-06-26T02:18:06;101177.16;;;19.95;100.00
73516;BME280;61763;51.416;5.442;2023-06-26T02:20:31;101184.66;;;19.82;100.00
73516;BME280;61763;51.416;5.442;2023-06-26T02:22:58;101185.00;;;19.77;100.00
73516;BME280;61763;51.416;5.442;2023-06-26T02:25:23;101181.44;;;19.65;100.00
73516;BME280;61763;51.416;5.442;2023-06-26T02:27:49;101187.94;;;19.64;100.00
73516;BME280;61763;51.416;5.442;2023-06-26T02:30:14;101191.16;;;19.58;100.00
73516;BME280;61763;51.416;5.442;2023-06-26T02:32:39;101186.03;;;19.65;100.00
73516;BME280;61763;51.416;5.442;2023-06-26T02:35:05;101187.94;;;19.64;100.00
73516;BME280;61763;51.416;5.442;2023-06-26T02:37:31;101181.22;;;19.57;100.00
73516;BME280;61763;51.416;5.442;2023-06-26T02:39:56;101191.78;;;19.50;100.00
73516;BME280;61763;51.416;5.442;2023-06-26T02:42:22;101187.69;;;19.44;100.00
73516;BME280;61763;51.416;5.442;2023-06-26T02:44:47;101183.84;;;19.36;100.00
73516;BME280;61763;51.416;5.442;2023-06-26T02:47:13;101192.31;;;19.33;100.00
73516;BME280;61763;51.416;5.442;2023-06-26T02:49:38;101190.59;;;19.32;100.00
73516;BME280;61763;51.416;5.442;2023-06-26T02:52:03;101201.75;;;19.29;100.00
73516;BME280;61763;51.416;5.442;2023-06-26T02:54:29;101198.69;;;19.33;100.00
73516;BME280;61763;51.416;5.442;2023-06-26T02:56:54;101205.75;;;19.24;100.00
73516;BME280;61763;51.416;5.442;2023-06-26T02:59:20;101212.59;;;19.19;100.00
73516;BME280;61763;51.416;5.442;2023-06-26T03:01:45;101224.78;;;19.15;100.00
73516;BME280;61763;51.416;5.442;2023-06-26T03:04:10;101216.56;;;19.15;100.00
73516;BME280;61763;51.416;5.442;2023-06-26T03:06:36;101221.78;;;19.06;100.00
73516;BME280;61763;51.416;5.442;2023-06-26T03:09:02;101217.94;;;18.98;100.00
73516;BME280;61763;51.416;5.442;2023-06-26T03:11:28;101217.69;;;18.89;100.00
73516;BME280;61763;51.416;5.442;2023-06-26T03:13:53;101228.75;;;18.88;100.00
73516;BME280;61763;51.416;5.442;2023-06-26T03:16:19;101223.16;;;18.89;100.00
73516;BME280;61763;51.416;5.442;2023-06-26T03:18:44;101233.44;;;18.86;100.00
73516;BME280;61763;51.416;5.442;2023-06-26T03:21:10;101227.75;;;19.00;100.00
73516;BME280;61763;51.416;5.442;2023-06-26T03:23:35;101230.84;;;18.96;100.00
73516;BME280;61763;51.416;5.442;2023-06-26T03:26:00;101222.66;;;18.96;100.00
73516;BME280;61763;51.416;5.442;2023-06-26T03:28:26;101237.81;;;19.00;100.00
73516;BME280;61763;51.416;5.442;2023-06-26T03:30:51;101230.72;;;18.86;100.00
73516;BME280;61763;51.416;5.442;2023-06-26T03:33:17;101239.81;;;18.86;100.00
73516;BME280;61763;51.416;5.442;2023-06-26T03:35:42;101231.81;;;18.83;100.00
73516;BME280;61763;51.416;5.442;2023-06-26T03:38:08;101223.56;;;18.72;100.00
73516;BME280;61763;51.416;5.442;2023-06-26T03:40:33;101233.13;;;18.66;100.00
73516;BME280;61763;51.416;5.442;2023-06-26T03:42:58;101234.38;;;18.73;100.00
73516;BME280;61763;51.416;5.442;2023-06-26T03:45:24;101240.34;;;18.67;100.00
73516;BME280;61763;51.416;5.442;2023-06-26T03:47:49;101234.22;;;18.64;100.00
73516;BME280;61763;51.416;5.442;2023-06-26T03:50:18;101239.94;;;18.61;100.00
73516;BME280;61763;51.416;5.442;2023-06-26T03:52:43;101243.69;;;18.60;100.00
73516;BME280;61763;51.416;5.442;2023-06-26T03:55:09;101244.78;;;18.57;100.00
73516;BME280;61763;51.416;5.442;2023-06-26T03:57:34;101251.41;;;18.66;100.00
73516;BME280;61763;51.416;5.442;2023-06-26T04:00:00;101251.44;;;18.77;100.00
73516;BME280;61763;51.416;5.442;2023-06-26T04:02:25;101255.13;;;18.65;100.00
73516;BME280;61763;51.416;5.442;2023-06-26T04:04:51;101261.34;;;18.67;100.00
73516;BME280;61763;51.416;5.442;2023-06-26T04:07:18;101263.19;;;18.66;100.00
73516;BME280;61763;51.416;5.442;2023-06-26T04:09:43;101266.91;;;18.65;100.00
73516;BME280;61763;51.416;5.442;2023-06-26T04:12:08;101267.31;;;18.72;100.00
73516;BME280;61763;51.416;5.442;2023-06-26T04:14:34;101267.31;;;18.72;100.00
73516;BME280;61763;51.416;5.442;2023-06-26T04:16:59;101280.75;;;18.75;100.00
73516;BME280;61763;51.416;5.442;2023-06-26T04:19:27;101281.59;;;18.76;100.00
73516;BME280;61763;51.416;5.442;2023-06-26T04:21:52;101291.69;;;18.75;100.00
73516;BME280;61763;51.416;5.442;2023-06-26T04:24:17;101283.44;;;18.88;100.00
73516;BME280;61763;51.416;5.442;2023-06-26T04:26:43;101283.56;;;18.86;100.00
73516;BME280;61763;51.416;5.442;2023-06-26T04:29:10;101296.78;;;19.04;100.00
73516;BME280;61763;51.416;5.442;2023-06-26T04:31:36;101291.91;;;19.07;100.00
73516;BME280;61763;51.416;5.442;2023-06-26T04:34:01;101284.47;;;19.10;100.00
73516;BME280;61763;51.416;5.442;2023-06-26T04:36:26;101284.22;;;19.24;100.00
73516;BME280;61763;51.416;5.442;2023-06-26T04:38:55;101282.75;;;19.31;100.00
73516;BME280;61763;51.416;5.442;2023-06-26T04:41:21;101293.19;;;19.49;100.00
73516;BME280;61763;51.416;5.442;2023-06-26T04:43:46;101292.94;;;19.63;100.00
73516;BME280;61763;51.416;5.442;2023-06-26T04:46:12;101305.41;;;19.67;100.00
73516;BME280;61763;51.416;5.442;2023-06-26T04:48:37;101303.13;;;19.72;100.00
73516;BME280;61763;51.416;5.442;2023-06-26T04:51:02;101314.97;;;19.73;100.00
73516;BME280;61763;51.416;5.442;2023-06-26T04:53:28;101320.59;;;19.83;100.00
73516;BME280;61763;51.416;5.442;2023-06-26T04:55:53;101314.84;;;19.74;100.00
73516;BME280;61763;51.416;5.442;2023-06-26T04:58:19;101321.31;;;19.62;100.00
73516;BME280;61763;51.416;5.442;2023-06-26T05:00:45;101321.44;;;19.49;100.00
73516;BME280;61763;51.416;5.442;2023-06-26T05:03:14;101322.81;;;19.55;100.00
73516;BME280;61763;51.416;5.442;2023-06-26T05:05:42;101316.22;;;19.80;100.00
73516;BME280;61763;51.416;5.442;2023-06-26T05:08:18;101323.78;;;20.10;100.00
73516;BME280;61763;51.416;5.442;2023-06-26T05:10:44;101325.13;;;20.27;100.00
73516;BME280;61763;51.416;5.442;2023-06-26T05:13:10;101319.25;;;20.32;100.00
73516;BME280;61763;51.416;5.442;2023-06-26T05:15:36;101319.34;;;20.42;100.00
73516;BME280;61763;51.416;5.442;2023-06-26T05:18:01;101330.94;;;20.34;100.00
73516;BME280;61763;51.416;5.442;2023-06-26T05:20:27;101334.72;;;20.22;100.00
73516;BME280;61763;51.416;5.442;2023-06-26T05:22:52;101334.09;;;20.29;100.00
73516;BME280;61763;51.416;5.442;2023-06-26T05:25:18;101341.78;;;20.36;100.00
73516;BME280;61763;51.416;5.442;2023-06-26T05:27:46;101335.34;;;20.25;100.00
73516;BME280;61763;51.416;5.442;2023-06-26T05:30:13;101345.38;;;19.92;100.00
73516;BME280;61763;51.416;5.442;2023-06-26T05:32:39;101343.00;;;19.88;100.00
73516;BME280;61763;51.416;5.442;2023-06-26T05:35:06;101347.13;;;19.93;100.00
73516;BME280;61763;51.416;5.442;2023-06-26T05:37:33;101341.72;;;20.15;100.00
73516;BME280;61763;51.416;5.442;2023-06-26T05:39:59;101350.81;;;20.15;100.00
73516;BME280;61763;51.416;5.442;2023-06-26T05:42:26;101348.69;;;20.19;100.00
73516;BME280;61763;51.416;5.442;2023-06-26T05:44:51;101359.03;;;20.15;100.00
73516;BME280;61763;51.416;5.442;2023-06-26T05:47:16;101359.78;;;20.17;100.00
73516;BME280;61763;51.416;5.442;2023-06-26T05:49:42;101358.53;;;20.10;100.00
73516;BME280;61763;51.416;5.442;2023-06-26T05:52:08;101357.19;;;19.93;100.00
73516;BME280;61763;51.416;5.442;2023-06-26T05:54:34;101350.19;;;20.11;100.00
73516;BME280;61763;51.416;5.442;2023-06-26T05:56:59;101357.06;;;20.06;100.00
73516;BME280;61763;51.416;5.442;2023-06-26T05:59:26;101368.25;;;20.03;100.00
73516;BME280;61763;51.416;5.442;2023-06-26T06:01:52;101372.59;;;20.17;100.00
73516;BME280;61763;51.416;5.442;2023-06-26T06:04:17;101371.47;;;20.19;100.00
73516;BME280;61763;51.416;5.442;2023-06-26T06:06:43;101391.84;;;20.49;100.00
73516;BME280;61763;51.416;5.442;2023-06-26T06:09:08;101381.09;;;20.69;100.00
73516;BME280;61763;51.416;5.442;2023-06-26T06:11:34;101379.47;;;20.77;100.00
73516;BME280;61763;51.416;5.442;2023-06-26T06:13:59;101385.66;;;20.79;100.00
73516;BME280;61763;51.416;5.442;2023-06-26T06:16:25;101388.94;;;20.73;100.00
73516;BME280;61763;51.416;5.442;2023-06-26T06:18:50;101402.53;;;20.75;100.00
73516;BME280;61763;51.416;5.442;2023-06-26T06:21:16;101404.34;;;20.86;100.00
73516;BME280;61763;51.416;5.442;2023-06-26T06:23:41;101400.34;;;20.90;100.00
73516;BME280;61763;51.416;5.442;2023-06-26T06:26:06;101403.75;;;20.82;100.00
73516;BME280;61763;51.416;5.442;2023-06-26T06:28:32;101411.44;;;20.88;100.00
73516;BME280;61763;51.416;5.442;2023-06-26T06:30:57;101415.75;;;21.02;100.00
73516;BME280;61763;51.416;5.442;2023-06-26T06:33:23;101414.97;;;21.11;100.00
73516;BME280;61763;51.416;5.442;2023-06-26T06:35:48;101416.81;;;21.11;100.00
73516;BME280;61763;51.416;5.442;2023-06-26T06:38:13;101406.53;;;21.24;100.00
73516;BME280;61763;51.416;5.442;2023-06-26T06:40:39;101403.50;;;21.27;100.00
73516;BME280;61763;51.416;5.442;2023-06-26T06:43:04;101412.53;;;21.39;100.00
73516;BME280;61763;51.416;5.442;2023-06-26T06:45:29;101418.22;;;21.59;100.00
73516;BME280;61763;51.416;5.442;2023-06-26T06:47:55;101418.66;;;21.43;100.00
73516;BME280;61763;51.416;5.442;2023-06-26T06:50:20;101422.13;;;21.45;100.00
73516;BME280;61763;51.416;5.442;2023-06-26T06:52:46;101434.69;;;21.59;100.00
73516;BME280;61763;51.416;5.442;2023-06-26T06:55:11;101430.53;;;21.64;100.00
73516;BME280;61763;51.416;5.442;2023-06-26T06:57:38;101422.03;;;21.67;100.00
73516;BME280;61763;51.416;5.442;2023-06-26T07:00:04;101441.78;;;21.92;100.00
73516;BME280;61763;51.416;5.442;2023-06-26T07:02:30;101432.63;;;22.03;100.00
73516;BME280;61763;51.416;5.442;2023-06-26T07:04:55;101448.97;;;22.04;100.00
73516;BME280;61763;51.416;5.442;2023-06-26T07:07:20;101451.16;;;22.11;100.00
73516;BME280;61763;51.416;5.442;2023-06-26T07:09:46;101459.88;;;22.16;100.00
73516;BME280;61763;51.416;5.442;2023-06-26T07:12:11;101452.19;;;22.19;100.00
73516;BME280;61763;51.416;5.442;2023-06-26T07:14:37;101457.91;;;22.28;100.00
73516;BME280;61763;51.416;5.442;2023-06-26T07:17:02;101467.84;;;22.50;100.00
73516;BME280;61763;51.416;5.442;2023-06-26T07:19:27;101473.19;;;22.61;100.00
73516;BME280;61763;51.416;5.442;2023-06-26T07:21:53;101468.50;;;22.92;100.00
73516;BME280;61763;51.416;5.442;2023-06-26T07:24:18;101468.78;;;22.89;100.00
73516;BME280;61763;51.416;5.442;2023-06-26T07:26:44;101480.94;;;22.97;100.00
73516;BME280;61763;51.416;5.442;2023-06-26T07:29:09;101482.13;;;22.94;100.00
73516;BME280;61763;51.416;5.442;2023-06-26T07:31:34;101476.47;;;23.05;100.00
73516;BME280;61763;51.416;5.442;2023-06-26T07:34:00;101491.81;;;22.88;100.00
73516;BME280;61763;51.416;5.442;2023-06-26T07:36:25;101485.47;;;23.07;100.00
73516;BME280;61763;51.416;5.442;2023-06-26T07:38:50;101480.84;;;23.37;100.00
73516;BME280;61763;51.416;5.442;2023-06-26T07:41:16;101490.13;;;23.17;100.00
73516;BME280;61763;51.416;5.442;2023-06-26T07:43:41;101498.25;;;23.38;100.00
73516;BME280;61763;51.416;5.442;2023-06-26T07:46:06;101499.44;;;23.35;100.00
73516;BME280;61763;51.416;5.442;2023-06-26T07:48:32;101494.03;;;23.53;100.00
73516;BME280;61763;51.416;5.442;2023-06-26T07:50:57;101504.88;;;23.74;100.00
73516;BME280;61763;51.416;5.442;2023-06-26T07:53:22;101506.38;;;23.59;100.00
73516;BME280;61763;51.416;5.442;2023-06-26T07:55:48;101500.41;;;23.73;100.00
73516;BME280;61763;51.416;5.442;2023-06-26T07:58:13;101506.66;;;23.56;100.00
73516;BME280;61763;51.416;5.442;2023-06-26T08:00:40;101517.09;;;23.72;100.00
73516;BME280;61763;51.416;5.442;2023-06-26T08:03:05;101507.38;;;23.58;100.00
73516;BME280;61763;51.416;5.442;2023-06-26T08:05:31;101518.81;;;23.73;100.00
73516;BME280;61763;51.416;5.442;2023-06-26T08:07:56;101513.44;;;23.71;100.00
73516;BME280;61763;51.416;5.442;2023-06-26T08:10:22;101522.44;;;23.93;100.00
73516;BME280;61763;51.416;5.442;2023-06-26T08:12:47;101516.03;;;23.83;100.00
73516;BME280;61763;51.416;5.442;2023-06-26T08:15:14;101527.22;;;23.91;100.00
73516;BME280;61763;51.416;5.442;2023-06-26T08:17:39;101524.13;;;24.13;100.00
73516;BME280;61763;51.416;5.442;2023-06-26T08:20:05;101521.69;;;24.10;100.00
73516;BME280;61763;51.416;5.442;2023-06-26T08:22:33;101529.56;;;23.66;100.00
73516;BME280;61763;51.416;5.442;2023-06-26T08:24:58;101527.69;;;23.37;100.00
73516;BME280;61763;51.416;5.442;2023-06-26T08:27:23;101524.75;;;23.78;100.00
73516;BME280;61763;51.416;5.442;2023-06-26T08:29:49;101524.75;;;23.68;100.00
73516;BME280;61763;51.416;5.442;2023-06-26T08:32:14;101540.72;;;23.94;99.55
73516;BME280;61763;51.416;5.442;2023-06-26T08:34:39;101528.06;;;24.11;99.06
73516;BME280;61763;51.416;5.442;2023-06-26T08:37:05;101529.66;;;24.13;91.00
73516;BME280;61763;51.416;5.442;2023-06-26T08:39:30;101548.47;;;24.28;87.39
73516;BME280;61763;51.416;5.442;2023-06-26T08:41:56;101539.84;;;24.41;82.42
73516;BME280;61763;51.416;5.442;2023-06-26T08:44:22;101536.44;;;24.57;80.30
73516;BME280;61763;51.416;5.442;2023-06-26T08:46:52;101540.75;;;24.31;78.49
73516;BME280;61763;51.416;5.442;2023-06-26T08:49:21;101541.69;;;24.60;74.41
73516;BME280;61763;51.416;5.442;2023-06-26T08:51:52;101542.00;;;24.84;71.03
73516;BME280;61763;51.416;5.442;2023-06-26T08:54:27;101541.53;;;24.61;74.95
73516;BME280;61763;51.416;5.442;2023-06-26T08:56:54;101547.28;;;24.78;74.76
73516;BME280;61763;51.416;5.442;2023-06-26T08:59:21;101548.94;;;24.51;76.57
73516;BME280;61763;51.416;5.442;2023-06-26T09:01:46;101548.75;;;24.72;76.64
73516;BME280;61763;51.416;5.442;2023-06-26T09:04:12;101546.97;;;24.81;76.60
73516;BME280;61763;51.416;5.442;2023-06-26T09:06:39;101561.19;;;25.04;79.51
73516;BME280;61763;51.416;5.442;2023-06-26T09:09:04;101563.38;;;24.82;79.33
73516;BME280;61763;51.416;5.442;2023-06-26T09:11:30;101557.78;;;24.92;74.40
73516;BME280;61763;51.416;5.442;2023-06-26T09:13:55;101556.00;;;25.01;73.01
73516;BME280;61763;51.416;5.442;2023-06-26T09:16:26;101554.47;;;24.61;79.56
73516;BME280;61763;51.416;5.442;2023-06-26T09:18:52;101557.59;;;24.28;77.76
73516;BME280;61763;51.416;5.442;2023-06-26T09:21:18;101550.44;;;24.83;71.74
73516;BME280;61763;51.416;5.442;2023-06-26T09:23:44;101568.31;;;25.07;66.19
73516;BME280;61763;51.416;5.442;2023-06-26T09:26:09;101571.41;;;24.28;70.51
73516;BME280;61763;51.416;5.442;2023-06-26T09:28:36;101566.94;;;24.08;72.65
73516;BME280;61763;51.416;5.442;2023-06-26T09:31:05;101571.59;;;24.07;74.21
73516;BME280;61763;51.416;5.442;2023-06-26T09:33:35;101579.84;;;24.64;69.91
73516;BME280;61763;51.416;5.442;2023-06-26T09:36:04;101581.63;;;24.93;65.77
73516;BME280;61763;51.416;5.442;2023-06-26T09:38:30;101585.16;;;24.86;67.38
73516;BME280;61763;51.416;5.442;2023-06-26T09:40:55;101576.13;;;24.83;68.28
73516;BME280;61763;51.416;5.442;2023-06-26T09:43:21;101588.66;;;25.06;61.83
73516;BME280;61763;51.416;5.442;2023-06-26T09:45:46;101600.03;;;25.84;63.37
73516;BME280;61763;51.416;5.442;2023-06-26T09:48:13;101597.63;;;25.63;58.43
73516;BME280;61763;51.416;5.442;2023-06-26T09:50:41;101606.09;;;25.88;56.78
73516;BME280;61763;51.416;5.442;2023-06-26T09:53:08;101603.03;;;26.09;54.97
73516;BME280;61763;51.416;5.442;2023-06-26T09:55:35;101608.38;;;25.93;57.09
73516;BME280;61763;51.416;5.442;2023-06-26T09:58:05;101609.56;;;26.26;56.93
73516;BME280;61763;51.416;5.442;2023-06-26T10:00:31;101604.28;;;26.41;58.83
73516;BME280;61763;51.416;5.442;2023-06-26T10:02:57;101609.38;;;26.54;55.50
73516;BME280;61763;51.416;5.442;2023-06-26T10:05:23;101602.66;;;26.04;57.94
73516;BME280;61763;51.416;5.442;2023-06-26T10:07:48;101603.19;;;25.53;53.60
73516;BME280;61763;51.416;5.442;2023-06-26T10:10:16;101605.22;;;25.06;55.23
73516;BME280;61763;51.416;5.442;2023-06-26T10:12:43;101607.47;;;25.48;53.35
73516;BME280;61763;51.416;5.442;2023-06-26T10:15:12;101615.06;;;26.00;53.27
73516;BME280;61763;51.416;5.442;2023-06-26T10:17:42;101611.34;;;26.09;49.80
73516;BME280;61763;51.416;5.442;2023-06-26T10:20:08;101597.13;;;26.56;46.52
73516;BME280;61763;51.416;5.442;2023-06-26T10:22:40;101608.69;;;26.78;46.57
73516;BME280;61763;51.416;5.442;2023-06-26T10:25:07;101605.84;;;27.04;44.75
73516;BME280;61763;51.416;5.442;2023-06-26T10:27:37;101616.19;;;27.37;43.86
73516;BME280;61763;51.416;5.442;2023-06-26T10:30:08;101624.25;;;27.73;42.50
73516;BME280;61763;51.416;5.442;2023-06-26T10:32:35;101610.00;;;27.68;42.04
73516;BME280;61763;51.416;5.442;2023-06-26T10:35:01;101606.84;;;26.95;42.06
73516;BME280;61763;51.416;5.442;2023-06-26T10:37:44;101628.09;;;26.34;45.10
73516;BME280;61763;51.416;5.442;2023-06-26T10:40:12;101620.25;;;26.03;47.73
73516;BME280;61763;51.416;5.442;2023-06-26T10:42:39;101636.03;;;26.29;46.86
73516;BME280;61763;51.416;5.442;2023-06-26T10:45:14;101627.31;;;26.42;46.32
73516;BME280;61763;51.416;5.442;2023-06-26T10:47:41;101626.44;;;26.67;46.51
73516;BME280;61763;51.416;5.442;2023-06-26T10:50:19;101629.88;;;26.96;45.28
73516;BME280;61763;51.416;5.442;2023-06-26T10:52:45;101640.31;;;27.53;45.72
73516;BME280;61763;51.416;5.442;2023-06-26T10:55:10;101634.13;;;27.75;43.88
73516;BME280;61763;51.416;5.442;2023-06-26T10:57:36;101633.09;;;27.85;42.62
73516;BME280;61763;51.416;5.442;2023-06-26T11:00:10;101626.31;;;27.79;39.63
73516;BME280;61763;51.416;5.442;2023-06-26T11:02:49;101633.81;;;28.03;38.57
73516;BME280;61763;51.416;5.442;2023-06-26T11:05:29;101636.38;;;27.64;39.35
73516;BME280;61763;51.416;5.442;2023-06-26T11:08:05;101642.19;;;27.44;41.31
73516;BME280;61763;51.416;5.442;2023-06-26T11:10:52;101643.25;;;27.43;40.31
73516;BME280;61763;51.416;5.442;2023-06-26T11:13:18;101634.59;;;27.03;40.58
73516;BME280;61763;51.416;5.442;2023-06-26T11:15:45;101653.78;;;26.97;40.55
73516;BME280;61763;51.416;5.442;2023-06-26T11:18:12;101651.06;;;26.52;40.63
73516;BME280;61763;51.416;5.442;2023-06-26T11:20:37;101655.69;;;27.04;41.23
73516;BME280;61763;51.416;5.442;2023-06-26T11:23:04;101649.28;;;26.43;41.05
73516;BME280;61763;51.416;5.442;2023-06-26T11:25:37;101649.88;;;26.55;44.02
73516;BME280;61763;51.416;5.442;2023-06-26T11:28:04;101654.16;;;27.02;41.44
73516;BME280;61763;51.416;5.442;2023-06-26T11:30:29;101658.81;;;27.44;40.85
73516;BME280;61763;51.416;5.442;2023-06-26T11:33:05;101655.06;;;27.53;41.37
73516;BME280;61763;51.416;5.442;2023-06-26T11:35:31;101660.00;;;28.25;43.25
73516;BME280;61763;51.416;5.442;2023-06-26T11:37:57;101666.25;;;28.11;42.46
73516;BME280;61763;51.416;5.442;2023-06-26T11:40:25;101670.91;;;27.86;42.65
73516;BME280;61763;51.416;5.442;2023-06-26T11:42:53;101667.31;;;28.18;41.72
73516;BME280;61763;51.416;5.442;2023-06-26T11:45:19;101673.72;;;28.19;41.72
73516;BME280;61763;51.416;5.442;2023-06-26T11:47:44;101678.75;;;28.31;39.63
73516;BME280;61763;51.416;5.442;2023-06-26T11:50:15;101695.31;;;27.82;39.74
73516;BME280;61763;51.416;5.442;2023-06-26T11:52:41;101702.13;;;28.21;40.43
73516;BME280;61763;51.416;5.442;2023-06-26T11:55:07;101701.81;;;28.32;40.54
73516;BME280;61763;51.416;5.442;2023-06-26T11:57:33;101705.00;;;27.78;41.54
73516;BME280;61763;51.416;5.442;2023-06-26T12:00:10;101706.53;;;27.21;42.13
73516;BME280;61763;51.416;5.442;2023-06-26T12:02:35;101713.53;;;27.07;43.22
73516;BME280;61763;51.416;5.442;2023-06-26T12:05:01;101712.00;;;26.79;41.78
73516;BME280;61763;51.416;5.442;2023-06-26T12:07:26;101704.31;;;26.46;43.36
73516;BME280;61763;51.416;5.442;2023-06-26T12:09:52;101723.44;;;26.39;42.60
73516;BME280;61763;51.416;5.442;2023-06-26T12:12:18;101712.66;;;25.64;44.56
73516;BME280;61763;51.416;5.442;2023-06-26T12:14:44;101714.63;;;25.72;46.79
73516;BME280;61763;51.416;5.442;2023-06-26T12:17:11;101715.22;;;26.12;44.89
73516;BME280;61763;51.416;5.442;2023-06-26T12:19:38;101701.66;;;26.63;46.07
73516;BME280;61763;51.416;5.442;2023-06-26T12:22:07;101705.41;;;26.53;45.69
73516;BME280;61763;51.416;5.442;2023-06-26T12:24:34;101699.94;;;26.44;47.23
73516;BME280;61763;51.416;5.442;2023-06-26T12:27:00;101714.22;;;26.75;44.59
73516;BME280;61763;51.416;5.442;2023-06-26T12:29:33;101716.81;;;26.77;42.59
73516;BME280;61763;51.416;5.442;2023-06-26T12:31:58;101728.41;;;26.54;42.20
73516;BME280;61763;51.416;5.442;2023-06-26T12:34:36;101738.00;;;26.42;42.83
73516;BME280;61763;51.416;5.442;2023-06-26T12:37:07;101727.94;;;26.40;40.42
73516;BME280;61763;51.416;5.442;2023-06-26T12:42:25;101736.41;;;26.03;42.62
73516;BME280;61763;51.416;5.442;2023-06-26T12:44:52;101736.50;;;25.65;41.75
73516;BME280;61763;51.416;5.442;2023-06-26T12:47:25;101724.28;;;25.68;43.95